Ana Sayfa
METAR-TAF:

METAR-TAF

Havaalanları :

Belgorod Uluslararası Havalimanı

Belgorod, Rusya

Enlem: 50-38-36N, Boylam: 036-35-24E, yükseklik: 224 m

Güncel hava durumu gözlemi

Rapor saat 21:00 UTC de 18 dakika önce yapıldı.
Rüzgar batı/güneybatıdan 6 kt
Sıcaklık 2°C
Nem 93%
Basınç 1004 hPa
Görüş mesafesi 10 km veya daha fazla
4600 ft yükseklikte parçalı bulutlu

METAR: UUOB 232100Z 24003MPS 9999 SCT046 02/01 Q1004 R29/650345 NOSIG

Saat: 00:18 (21:18 UTC)

Tahmin

Rapor saat 20:00 UTC de 1 saat ve 18 dakika önce yapıldı.
Ayın 23'si saat 21 UTC'den ayın 24'si saat 06 UTC'ye kadar geçerli Tahmin
Rüzgar batı/güneybatıdan 10 kt ve 19 kt'a kadar ani rüzgarlar
Görüş mesafesi 10 km veya daha fazla
2000 ft yükseklikte parçalı çok bulutlu

TAF: UUOB 232000Z 2321/2406 24005G10MPS 9999 BKN020

4.000'den fazla havaalanı için hava durumu gözlemleri ve tahminleri (METAR ve TAF raporları).

Kullanılabilir istasyonlar harita üzerinde sarı ve kırmızı noktalarla gösterilir.

İstasyonun adını görmek için fareyi noktanın üzerinde gezdirin.

Sonrasında hava gözlem ve tahminlerini görmek için tıklayın.

Haritayı değiştirmek için: yaklaştırmak için siyah artı işaretli yeşil düğmeye ve uzaklaştırmak için de eksi işaretli düğmeye hızla tıklayın; bitişik haritalar için yeşil okları kullanın.


METAR-TAF: